createdAt,value
2022-11-05T00:02:23.226Z,99.90
2022-11-05T00:05:08.770Z,1.00
2022-11-05T00:08:00.750Z,1.00
2022-11-05T00:10:31.578Z,1.00
2022-11-05T00:13:17.971Z,1.00
2022-11-05T00:16:03.865Z,1.00
2022-11-05T00:18:30.863Z,1.00
2022-11-05T00:20:57.769Z,1.00
2022-11-05T00:23:42.978Z,1.00
2022-11-05T00:26:11.521Z,1.00
2022-11-05T00:28:40.731Z,1.00
2022-11-05T00:31:12.901Z,1.00
2022-11-05T00:33:44.554Z,1.00
2022-11-05T00:36:11.629Z,1.00
2022-11-05T00:38:38.378Z,1.00
2022-11-05T00:41:05.241Z,1.00
2022-11-05T00:43:54.984Z,1.00
2022-11-05T00:46:21.797Z,1.00
2022-11-05T00:49:07.176Z,99.90
2022-11-05T00:51:33.901Z,99.90
2022-11-05T00:54:00.650Z,99.90
2022-11-05T00:56:27.361Z,99.90
2022-11-05T00:58:55.970Z,99.90
2022-11-05T01:01:22.811Z,99.90
2022-11-05T01:03:51.864Z,99.90
2022-11-05T01:06:18.857Z,99.90
2022-11-05T01:08:46.359Z,99.90
2022-11-05T01:11:33.381Z,99.90
2022-11-05T01:14:06.283Z,99.90
2022-11-05T01:16:33.311Z,99.90
2022-11-05T01:19:01.329Z,99.90
2022-11-05T01:21:28.146Z,99.90
2022-11-05T01:23:54.961Z,99.90
2022-11-05T01:26:21.700Z,99.90
2022-11-05T01:28:54.470Z,99.90
2022-11-05T01:31:21.928Z,99.90
2022-11-05T01:33:48.890Z,99.90
2022-11-05T01:36:15.697Z,99.90
2022-11-05T01:38:42.510Z,1.00
2022-11-05T01:41:11.260Z,99.90
2022-11-05T01:43:49.877Z,1.00
2022-11-05T01:46:21.821Z,1.00
2022-11-05T01:48:49.137Z,1.00
2022-11-05T01:51:18.441Z,1.00
2022-11-05T01:53:52.810Z,1.00
2022-11-05T01:56:30.363Z,1.00
2022-11-05T01:59:01.221Z,1.00
2022-11-05T02:01:28.082Z,1.00
2022-11-05T02:03:59.933Z,1.00
2022-11-05T02:06:29.074Z,1.00
2022-11-05T02:09:04.383Z,1.00
2022-11-05T02:11:31.321Z,1.00
2022-11-05T02:13:58.094Z,1.00
2022-11-05T02:16:39.185Z,1.00
2022-11-05T02:20:14.004Z,1.00
2022-11-05T02:23:16.133Z,1.00
2022-11-05T02:25:57.736Z,1.00
2022-11-05T02:28:30.552Z,1.00
2022-11-05T02:31:04.754Z,99.90
2022-11-05T02:33:39.428Z,99.90
2022-11-05T02:36:41.356Z,99.90
2022-11-05T02:39:12.358Z,1.00
2022-11-05T02:42:27.072Z,1.00
2022-11-05T02:45:31.174Z,1.00
2022-11-05T02:48:22.600Z,1.00
2022-11-05T02:50:53.956Z,1.00
2022-11-05T02:53:29.412Z,1.00
2022-11-05T02:55:59.541Z,1.00
2022-11-05T02:58:30.581Z,99.90
2022-11-05T03:00:58.514Z,1.00
2022-11-05T03:03:45.513Z,1.00
2022-11-05T03:06:27.541Z,1.00
2022-11-05T03:09:00.119Z,1.00
2022-11-05T03:11:29.215Z,66.20
2022-11-05T03:14:14.270Z,89.60
2022-11-05T03:16:57.273Z,99.90
2022-11-05T03:20:00.970Z,99.90
2022-11-05T03:22:31.156Z,99.90
2022-11-05T03:25:01.823Z,99.90
2022-11-05T03:27:34.568Z,99.90
2022-11-05T03:30:05.801Z,99.90
2022-11-05T03:32:34.308Z,99.90
2022-11-05T03:35:28.940Z,99.90
2022-11-05T03:38:00.340Z,99.90
2022-11-05T03:40:28.460Z,99.90
2022-11-05T03:42:57.274Z,99.90
2022-11-05T03:45:28.508Z,1.00
2022-11-05T03:47:58.086Z,1.00
2022-11-05T03:50:38.466Z,1.00
2022-11-05T03:53:13.887Z,1.00
2022-11-05T03:55:52.885Z,1.00
2022-11-05T03:58:21.210Z,1.00
2022-11-05T04:00:48.999Z,1.00
2022-11-05T04:03:15.752Z,1.00
2022-11-05T04:05:42.638Z,1.00
2022-11-05T04:08:27.963Z,1.00
2022-11-05T04:11:13.391Z,1.00
2022-11-05T04:13:40.094Z,1.00
2022-11-05T04:16:25.486Z,99.90
2022-11-05T04:18:52.372Z,1.00
2022-11-05T04:21:37.834Z,1.00
2022-11-05T04:24:10.974Z,1.00
2022-11-05T04:26:43.877Z,1.00
2022-11-05T04:29:29.804Z,1.00
2022-11-05T04:31:56.806Z,1.00
2022-11-05T04:34:23.795Z,1.00
2022-11-05T04:36:51.982Z,1.00
2022-11-05T04:39:19.352Z,1.00
2022-11-05T04:41:48.218Z,1.00
2022-11-05T04:44:15.853Z,1.00
2022-11-05T04:46:43.100Z,1.00
2022-11-05T04:49:09.855Z,1.00
2022-11-05T04:51:36.527Z,1.00
2022-11-05T04:54:03.556Z,1.00
2022-11-05T04:56:30.312Z,1.00
2022-11-05T04:58:57.075Z,1.00
2022-11-05T05:01:25.453Z,1.00
2022-11-05T05:03:53.519Z,1.00
2022-11-05T05:06:21.846Z,1.00
2022-11-05T05:08:50.213Z,99.90
2022-11-05T05:11:19.791Z,99.90
2022-11-05T05:13:47.163Z,99.90
2022-11-05T05:16:21.290Z,99.90
2022-11-05T05:18:48.758Z,99.90
2022-11-05T05:21:35.228Z,99.90
2022-11-05T05:24:02.156Z,99.90
2022-11-05T05:26:29.192Z,99.90
2022-11-05T05:28:55.886Z,99.90
2022-11-05T05:31:23.268Z,99.90
2022-11-05T05:33:53.330Z,99.90
2022-11-05T05:36:20.066Z,99.90
2022-11-05T05:38:46.943Z,99.90
2022-11-05T05:41:13.760Z,99.90
2022-11-05T05:43:40.525Z,99.90
2022-11-05T05:46:09.583Z,99.90
2022-11-05T05:48:36.393Z,99.90
2022-11-05T05:51:05.304Z,99.90
2022-11-05T05:53:33.536Z,99.90
2022-11-05T05:56:00.681Z,99.90
2022-11-05T05:58:34.727Z,99.90
2022-11-05T06:01:03.977Z,99.90
2022-11-05T06:03:30.819Z,99.90
2022-11-05T06:06:05.896Z,99.90
2022-11-05T06:08:33.159Z,1.00
2022-11-05T06:11:00.947Z,1.00
2022-11-05T06:13:27.775Z,1.00
2022-11-05T06:16:02.634Z,1.00
2022-11-05T06:18:30.279Z,1.00
2022-11-05T06:21:08.237Z,1.00
2022-11-05T06:23:36.378Z,1.00
2022-11-05T06:26:05.171Z,1.00
2022-11-05T06:28:33.544Z,1.00
2022-11-05T06:31:00.489Z,1.00
2022-11-05T06:33:27.513Z,1.00
2022-11-05T06:35:54.539Z,1.00
2022-11-05T06:38:21.344Z,1.00
2022-11-05T06:40:48.083Z,1.00
2022-11-05T06:43:15.061Z,1.00
2022-11-05T06:45:42.067Z,1.00
2022-11-05T06:48:08.826Z,1.00
2022-11-05T06:50:35.601Z,1.00
2022-11-05T06:53:03.839Z,1.00
2022-11-05T06:55:31.464Z,1.00
2022-11-05T06:57:58.168Z,1.00
2022-11-05T07:00:25.226Z,1.00
2022-11-05T07:02:51.961Z,1.00
2022-11-05T07:05:18.745Z,1.00
2022-11-05T07:07:45.904Z,1.00
2022-11-05T07:10:17.577Z,1.00
2022-11-05T07:12:44.740Z,1.00
2022-11-05T07:15:12.710Z,1.00
2022-11-05T07:17:40.146Z,1.00
2022-11-05T07:20:13.160Z,1.00
2022-11-05T07:22:41.891Z,1.00
2022-11-05T07:25:09.380Z,1.00
2022-11-05T07:27:43.443Z,1.00
2022-11-05T07:30:12.035Z,1.00
2022-11-05T07:32:42.701Z,1.00
2022-11-05T07:35:11.681Z,1.00
2022-11-05T07:37:49.807Z,1.00
2022-11-05T07:40:21.295Z,1.00
2022-11-05T07:42:59.511Z,1.00
2022-11-05T07:45:28.678Z,1.00
2022-11-05T07:48:07.110Z,1.00
2022-11-05T07:50:36.552Z,1.00
2022-11-05T07:53:07.198Z,1.00
2022-11-05T07:55:35.305Z,1.00
2022-11-05T07:58:02.293Z,1.00
2022-11-05T08:00:29.429Z,1.00
2022-11-05T08:03:07.090Z,1.00
2022-11-05T08:05:37.293Z,1.00
2022-11-05T08:08:04.984Z,1.00
2022-11-05T08:10:32.521Z,1.00
2022-11-05T08:12:59.298Z,1.00
2022-11-05T08:15:26.065Z,1.00
2022-11-05T08:18:19.277Z,1.00
2022-11-05T08:20:47.433Z,1.00
2022-11-05T08:23:14.819Z,1.00
2022-11-05T08:25:42.065Z,1.00
2022-11-05T08:28:11.485Z,1.00
2022-11-05T08:30:38.418Z,1.00
2022-11-05T08:33:09.147Z,1.00
2022-11-05T08:35:37.359Z,1.00
2022-11-05T08:38:05.966Z,1.00
2022-11-05T08:40:34.691Z,1.00
2022-11-05T08:43:03.590Z,1.00
2022-11-05T08:45:30.520Z,1.00
2022-11-05T08:48:01.009Z,1.00
2022-11-05T08:50:27.974Z,1.00
2022-11-05T08:52:54.869Z,1.00
2022-11-05T08:55:21.802Z,1.00
2022-11-05T08:57:48.851Z,1.00
2022-11-05T09:00:15.969Z,1.00
2022-11-05T09:02:42.852Z,1.00
2022-11-05T09:05:09.612Z,1.00
2022-11-05T09:07:36.396Z,1.00
2022-11-05T09:10:03.266Z,1.00
2022-11-05T09:12:30.054Z,1.00
2022-11-05T09:14:57.940Z,1.00
2022-11-05T09:17:24.667Z,1.00
2022-11-05T09:19:51.422Z,1.00
2022-11-05T09:22:18.168Z,1.00
2022-11-05T09:24:44.969Z,1.00
2022-11-05T09:27:15.749Z,1.00
2022-11-05T09:29:42.647Z,1.00
2022-11-05T09:32:09.451Z,1.00
2022-11-05T09:34:36.283Z,1.00
2022-11-05T09:37:03.699Z,1.00
2022-11-05T09:39:30.442Z,1.00
2022-11-05T09:42:01.780Z,1.00
2022-11-05T09:44:43.118Z,1.00
2022-11-05T09:47:16.094Z,1.00
2022-11-05T09:49:48.240Z,1.00
2022-11-05T09:52:20.264Z,1.00
2022-11-05T09:54:48.710Z,1.00
2022-11-05T09:57:38.581Z,1.00
2022-11-05T10:00:07.579Z,1.00
2022-11-05T10:02:43.983Z,1.00
2022-11-05T10:05:13.274Z,1.00
2022-11-05T10:07:53.678Z,1.00
2022-11-05T10:10:42.220Z,1.00
2022-11-05T10:13:30.082Z,99.90
2022-11-05T10:16:12.216Z,99.90
2022-11-05T10:18:44.898Z,99.90
2022-11-05T10:21:17.109Z,99.90
2022-11-05T10:23:45.712Z,99.90
2022-11-05T10:26:15.733Z,99.90
2022-11-05T10:28:42.473Z,1.00
2022-11-05T10:31:12.946Z,1.00
2022-11-05T10:33:43.145Z,1.00
2022-11-05T10:36:12.695Z,1.00
2022-11-05T10:38:39.473Z,99.90
2022-11-05T10:41:20.702Z,99.90
2022-11-05T10:43:52.460Z,99.90
2022-11-05T10:46:35.600Z,99.90
2022-11-05T10:49:10.640Z,99.90
2022-11-05T10:51:37.474Z,99.90
2022-11-05T10:54:10.707Z,73.10
2022-11-05T10:56:39.648Z,29.60
2022-11-05T10:59:20.037Z,45.90
2022-11-05T11:01:47.086Z,1.00
2022-11-05T11:04:17.611Z,1.00
2022-11-05T11:06:49.656Z,1.00
2022-11-05T11:09:23.449Z,1.00
2022-11-05T11:12:06.369Z,1.00
2022-11-05T11:14:35.114Z,99.90
2022-11-05T11:17:29.110Z,99.90
2022-11-05T11:20:17.718Z,99.90
2022-11-05T11:22:59.179Z,99.90
2022-11-05T11:25:39.169Z,99.90
2022-11-05T11:28:07.289Z,24.90
2022-11-05T11:30:35.149Z,99.90
2022-11-05T11:33:08.167Z,13.10
2022-11-05T11:35:37.036Z,92.30
2022-11-05T11:38:05.755Z,1.00
2022-11-05T11:40:37.709Z,1.00
2022-11-05T11:43:07.315Z,90.60
2022-11-05T11:45:45.127Z,1.00
2022-11-05T11:48:18.422Z,1.00
2022-11-05T11:50:47.149Z,1.00
2022-11-05T11:53:20.047Z,60.00
2022-11-05T11:56:19.895Z,16.50
2022-11-05T11:59:03.081Z,65.60
2022-11-05T12:02:24.043Z,99.90
2022-11-05T12:05:09.737Z,99.90
2022-11-05T12:07:53.087Z,99.90
2022-11-05T12:10:23.199Z,99.90
2022-11-05T12:13:20.629Z,99.90
2022-11-05T12:15:55.227Z,99.90
2022-11-05T12:18:44.428Z,99.90
2022-11-05T12:21:52.894Z,99.90
2022-11-05T12:24:38.283Z,99.90
2022-11-05T12:27:15.372Z,99.90
2022-11-05T12:29:53.402Z,99.90
2022-11-05T12:32:48.031Z,99.90
2022-11-05T12:35:35.105Z,99.90
2022-11-05T12:38:20.460Z,1.00
2022-11-05T12:41:09.409Z,1.00
2022-11-05T12:44:06.775Z,1.00
2022-11-05T12:47:02.585Z,1.00
2022-11-05T12:49:45.749Z,1.00
2022-11-05T12:52:30.976Z,1.00
2022-11-05T12:55:24.189Z,1.00
2022-11-05T12:57:57.028Z,1.00
2022-11-05T13:00:25.443Z,1.00
2022-11-05T13:02:58.166Z,1.00
2022-11-05T13:05:35.274Z,1.00
2022-11-05T13:08:26.263Z,53.50
2022-11-05T13:10:57.685Z,1.00
2022-11-05T13:13:34.188Z,1.00
2022-11-05T13:16:07.848Z,1.00
2022-11-05T13:18:42.037Z,1.00
2022-11-05T13:21:09.988Z,1.00
2022-11-05T13:23:44.357Z,1.00
2022-11-05T13:26:24.741Z,1.00
2022-11-05T13:29:04.323Z,24.90
2022-11-05T13:31:43.895Z,1.00
2022-11-05T13:34:11.862Z,1.00
2022-11-05T13:37:10.885Z,1.00
2022-11-05T13:39:45.698Z,1.00
2022-11-05T13:42:37.188Z,1.00
2022-11-05T13:45:18.945Z,1.00
2022-11-05T13:47:48.705Z,1.00
2022-11-05T13:50:33.417Z,1.00
2022-11-05T13:53:22.104Z,99.90
2022-11-05T13:56:26.510Z,1.00
2022-11-05T13:59:31.419Z,1.00
2022-11-05T14:02:00.719Z,1.00
2022-11-05T14:04:38.339Z,1.00
2022-11-05T14:07:10.582Z,1.00
2022-11-05T14:09:38.535Z,1.00
2022-11-05T14:12:07.679Z,1.00
2022-11-05T14:14:48.196Z,1.00
2022-11-05T14:17:23.015Z,1.00
2022-11-05T14:19:51.849Z,1.00
2022-11-05T14:22:31.417Z,1.00
2022-11-05T14:24:59.525Z,1.00
2022-11-05T14:27:29.374Z,1.00
2022-11-05T14:29:56.124Z,1.00
2022-11-05T14:32:25.889Z,1.00
2022-11-05T14:35:17.426Z,99.90
2022-11-05T14:37:57.885Z,1.00
2022-11-05T14:40:37.538Z,1.00
2022-11-05T14:43:07.186Z,1.00
2022-11-05T14:46:03.043Z,1.00
2022-11-05T14:48:41.204Z,1.00
2022-11-05T14:51:27.328Z,99.90
2022-11-05T14:54:19.965Z,99.90
2022-11-05T14:56:53.286Z,99.90
2022-11-05T14:59:25.837Z,99.90
2022-11-05T15:02:04.731Z,1.00
2022-11-05T15:04:45.353Z,99.90
2022-11-05T15:07:25.132Z,1.00
2022-11-05T15:10:13.892Z,1.00
2022-11-05T15:12:46.884Z,1.00
2022-11-05T15:15:22.229Z,1.00
2022-11-05T15:18:00.630Z,1.00
2022-11-05T15:20:40.353Z,1.00
2022-11-05T15:23:11.245Z,1.00
2022-11-05T15:25:53.230Z,1.00
2022-11-05T15:28:42.374Z,1.00
2022-11-05T15:31:12.305Z,1.00
2022-11-05T15:33:40.532Z,1.00
2022-11-05T15:36:26.563Z,1.00
2022-11-05T15:39:22.970Z,1.00
2022-11-05T15:41:40.753Z,1.00
2022-11-05T15:44:23.843Z,1.00
2022-11-05T15:47:18.603Z,1.00
2022-11-05T15:49:48.176Z,1.00
2022-11-05T15:52:16.343Z,1.00
2022-11-05T15:54:43.862Z,1.00
2022-11-05T15:57:20.256Z,1.00
2022-11-05T15:59:47.286Z,1.00
2022-11-05T16:02:14.166Z,1.00
2022-11-05T16:04:46.247Z,1.00
2022-11-05T16:07:13.265Z,1.00
2022-11-05T16:09:50.987Z,1.00
2022-11-05T16:12:20.780Z,1.00
2022-11-05T16:15:09.645Z,1.00
2022-11-05T16:17:39.528Z,1.00
2022-11-05T16:20:21.354Z,1.00
2022-11-05T16:22:50.114Z,1.00
2022-11-05T16:25:22.931Z,1.00
2022-11-05T16:27:49.784Z,1.00
2022-11-05T16:30:17.519Z,1.00
2022-11-05T16:32:44.461Z,1.00
2022-11-05T16:35:24.699Z,1.00
2022-11-05T16:37:52.630Z,1.00
2022-11-05T16:40:23.153Z,1.00
2022-11-05T16:42:52.072Z,1.00
2022-11-05T16:45:21.623Z,1.00
2022-11-05T16:47:48.746Z,1.00
2022-11-05T16:50:16.937Z,1.00
2022-11-05T16:52:45.224Z,1.00
2022-11-05T16:55:12.804Z,1.00
2022-11-05T16:57:39.852Z,1.00
2022-11-05T17:00:07.182Z,1.00
2022-11-05T17:02:33.991Z,1.00
2022-11-05T17:05:00.869Z,1.00
2022-11-05T17:07:27.631Z,1.00
2022-11-05T17:09:55.981Z,1.00
2022-11-05T17:12:22.762Z,1.00
2022-11-05T17:14:49.544Z,1.00
2022-11-05T17:17:16.239Z,1.00
2022-11-05T17:19:43.082Z,1.00
2022-11-05T17:22:09.877Z,1.00
2022-11-05T17:24:39.886Z,1.00
2022-11-05T17:27:15.604Z,1.00
2022-11-05T17:29:42.306Z,1.00
2022-11-05T17:32:13.109Z,1.00
2022-11-05T17:34:40.509Z,1.00
2022-11-05T17:37:07.218Z,1.00
2022-11-05T17:39:33.983Z,1.00
2022-11-05T17:42:00.877Z,1.00
2022-11-05T17:44:27.657Z,1.00
2022-11-05T17:46:54.404Z,1.00
2022-11-05T17:49:21.192Z,1.00
2022-11-05T17:51:47.927Z,1.00
2022-11-05T17:54:14.644Z,1.00
2022-11-05T17:56:44.628Z,1.00
2022-11-05T17:59:11.732Z,1.00
2022-11-05T18:01:43.367Z,1.00
2022-11-05T18:04:10.375Z,1.00
2022-11-05T18:06:38.282Z,1.00
2022-11-05T18:09:09.570Z,1.00
2022-11-05T18:11:38.413Z,1.00
2022-11-05T18:14:05.436Z,1.00
2022-11-05T18:16:32.506Z,1.00
2022-11-05T18:18:59.324Z,1.00
2022-11-05T18:21:26.245Z,1.00
2022-11-05T18:23:53.226Z,1.00
2022-11-05T18:26:20.259Z,1.00
2022-11-05T18:28:47.016Z,1.00
2022-11-05T18:31:22.989Z,1.00
2022-11-05T18:33:50.607Z,1.00
2022-11-05T18:36:21.791Z,1.00
2022-11-05T18:38:48.827Z,1.00
2022-11-05T18:41:16.393Z,1.00
2022-11-05T18:43:43.334Z,1.00
2022-11-05T18:46:23.835Z,1.00
2022-11-05T18:48:58.886Z,1.00
2022-11-05T18:51:26.344Z,1.00
2022-11-05T18:53:54.415Z,1.00
2022-11-05T18:56:21.455Z,1.00
2022-11-05T18:58:49.184Z,1.00
2022-11-05T19:01:18.118Z,1.00
2022-11-05T19:03:45.152Z,1.00
2022-11-05T19:06:12.421Z,1.00
2022-11-05T19:08:39.457Z,1.00
2022-11-05T19:11:11.140Z,1.00
2022-11-05T19:13:38.544Z,1.00
2022-11-05T19:16:16.858Z,1.00
2022-11-05T19:18:43.656Z,1.00
2022-11-05T19:21:12.322Z,1.00
2022-11-05T19:23:39.449Z,1.00
2022-11-05T19:26:13.009Z,1.00
2022-11-05T19:28:40.466Z,1.00
2022-11-05T19:31:07.456Z,1.00
2022-11-05T19:33:34.302Z,1.00
2022-11-05T19:36:05.291Z,1.00
2022-11-05T19:38:32.249Z,1.00
2022-11-05T19:40:59.041Z,1.00
2022-11-05T19:43:25.806Z,1.00
2022-11-05T19:45:52.628Z,1.00
2022-11-05T19:48:21.052Z,1.00
2022-11-05T19:50:48.016Z,1.00
2022-11-05T19:53:14.751Z,1.00
2022-11-05T19:55:42.007Z,1.00
2022-11-05T19:58:09.051Z,1.00
2022-11-05T20:00:36.656Z,1.00
2022-11-05T20:03:03.584Z,1.00
2022-11-05T20:05:30.424Z,1.00
2022-11-05T20:07:57.271Z,1.00
2022-11-05T20:10:24.012Z,1.00
2022-11-05T20:12:51.193Z,1.00
2022-11-05T20:15:19.709Z,1.00
2022-11-05T20:17:53.034Z,1.00
2022-11-05T20:20:20.345Z,1.00
2022-11-05T20:22:47.171Z,1.00
2022-11-05T20:25:13.990Z,13.20
2022-11-05T20:27:40.776Z,1.00
2022-11-05T20:30:08.286Z,9.50
2022-11-05T20:32:35.118Z,22.30
2022-11-05T20:35:02.296Z,20.70
2022-11-05T20:37:29.069Z,13.50
2022-11-05T20:39:55.902Z,44.50
2022-11-05T20:42:22.699Z,60.00
2022-11-05T20:44:49.542Z,92.20
2022-11-05T20:47:16.342Z,99.90
2022-11-05T20:49:43.091Z,99.90
2022-11-05T20:52:09.950Z,99.90
2022-11-05T20:54:36.755Z,99.90
2022-11-05T20:57:03.550Z,99.90
2022-11-05T20:59:30.374Z,99.90
2022-11-05T21:01:57.281Z,99.90
2022-11-05T21:04:24.217Z,99.90
2022-11-05T21:06:51.054Z,99.90
2022-11-05T21:09:17.800Z,99.90
2022-11-05T21:12:03.149Z,99.90
2022-11-05T21:14:29.970Z,99.90
2022-11-05T21:16:56.738Z,99.90
2022-11-05T21:19:24.057Z,99.90
2022-11-05T21:21:50.884Z,99.90
2022-11-05T21:24:17.899Z,99.90
2022-11-05T21:26:44.650Z,99.90
2022-11-05T21:29:11.515Z,99.90
2022-11-05T21:31:38.495Z,99.90
2022-11-05T21:34:05.361Z,99.90
2022-11-05T21:36:32.170Z,99.90
2022-11-05T21:38:58.878Z,99.90
2022-11-05T21:41:25.708Z,99.90
2022-11-05T21:43:52.483Z,99.90
2022-11-05T21:46:19.359Z,99.90
2022-11-05T21:48:46.118Z,99.90
2022-11-05T21:51:31.952Z,99.90
2022-11-05T21:54:17.348Z,99.90
2022-11-05T21:57:08.197Z,99.90
2022-11-05T21:59:49.666Z,99.90
2022-11-05T22:02:19.637Z,99.90
2022-11-05T22:04:48.755Z,99.90
2022-11-05T22:07:18.231Z,99.90
2022-11-05T22:09:45.036Z,99.90
2022-11-05T22:12:12.061Z,1.00
2022-11-05T22:14:39.031Z,99.90
2022-11-05T22:17:06.351Z,1.00
2022-11-05T22:19:33.459Z,1.00
2022-11-05T22:22:00.529Z,1.00
2022-11-05T22:24:31.902Z,99.90
2022-11-05T22:26:59.956Z,1.00
2022-11-05T22:29:27.005Z,1.00
2022-11-05T22:31:53.780Z,1.00
2022-11-05T22:34:20.719Z,1.00
2022-11-05T22:36:47.588Z,1.00
2022-11-05T22:39:14.425Z,1.00
2022-11-05T22:41:41.798Z,1.00
2022-11-05T22:44:10.366Z,1.00
2022-11-05T22:46:37.867Z,1.00
2022-11-05T22:49:04.719Z,1.00
2022-11-05T22:51:34.102Z,1.00
2022-11-05T22:54:01.784Z,1.00
2022-11-05T22:56:31.230Z,1.00
2022-11-05T22:58:58.327Z,1.00
2022-11-05T23:01:26.203Z,1.00
2022-11-05T23:03:55.100Z,1.00
2022-11-05T23:06:49.924Z,1.00
2022-11-05T23:09:39.606Z,1.00
2022-11-05T23:12:31.850Z,1.00
2022-11-05T23:15:00.210Z,1.00
2022-11-05T23:17:46.186Z,1.00
2022-11-05T23:20:40.181Z,1.00
2022-11-05T23:23:29.653Z,1.00
2022-11-05T23:25:58.243Z,1.00
2022-11-05T23:28:25.076Z,1.00
2022-11-05T23:31:10.401Z,1.00
2022-11-05T23:33:37.517Z,1.00
2022-11-05T23:36:22.902Z,1.00
2022-11-05T23:38:49.649Z,1.00
2022-11-05T23:41:34.982Z,1.00
2022-11-05T23:44:21.540Z,1.00
2022-11-05T23:47:07.004Z,1.00
2022-11-05T23:49:33.906Z,1.00
2022-11-05T23:52:00.635Z,1.00
2022-11-05T23:54:27.371Z,1.00
2022-11-05T23:56:54.115Z,1.00
2022-11-05T23:59:20.920Z,1.00
